createdAt,value
2022-12-16T00:00:09.742Z,-2.57
2022-12-16T00:02:36.707Z,-2.71
2022-12-16T00:05:04.384Z,-2.64
2022-12-16T00:07:34.361Z,-2.67
2022-12-16T00:10:01.274Z,-2.52
2022-12-16T00:12:28.137Z,-2.73
2022-12-16T00:14:55.238Z,-2.58
2022-12-16T00:17:22.125Z,-2.71
2022-12-16T00:19:48.973Z,-2.64
2022-12-16T00:22:15.967Z,-2.62
2022-12-16T00:24:42.801Z,-2.67
2022-12-16T00:27:09.728Z,-2.54
2022-12-16T00:29:36.656Z,-2.52
2022-12-16T00:32:03.751Z,-2.59
2022-12-16T00:34:30.664Z,-2.52
2022-12-16T00:36:57.475Z,-2.56
2022-12-16T00:39:24.300Z,-2.59
2022-12-16T00:41:51.545Z,-2.71
2022-12-16T00:44:18.817Z,-2.67
2022-12-16T00:46:45.636Z,-2.65
2022-12-16T00:49:12.471Z,-2.60
2022-12-16T00:51:39.340Z,-2.65
2022-12-16T00:54:06.230Z,-2.56
2022-12-16T00:56:33.097Z,-2.63
2022-12-16T00:58:59.966Z,-2.54
2022-12-16T01:01:26.879Z,-2.67
2022-12-16T01:03:57.845Z,-2.65
2022-12-16T01:06:24.955Z,-2.68
2022-12-16T01:08:51.896Z,-2.83
2022-12-16T01:11:19.968Z,-2.70
2022-12-16T01:13:51.203Z,-2.69
2022-12-16T01:16:19.495Z,-2.65
2022-12-16T01:18:46.468Z,-2.70
2022-12-16T01:21:15.300Z,-2.81
2022-12-16T01:23:42.512Z,-2.78
2022-12-16T01:26:17.360Z,-2.86
2022-12-16T01:28:45.984Z,-2.70
2022-12-16T01:31:13.037Z,-2.79
2022-12-16T01:33:40.108Z,-2.70
2022-12-16T01:36:08.602Z,-2.73
2022-12-16T01:38:36.594Z,-2.72
2022-12-16T01:41:05.252Z,-2.70
2022-12-16T01:43:36.538Z,-2.63
2022-12-16T01:46:12.447Z,-2.65
2022-12-16T01:49:04.260Z,-2.73
2022-12-16T01:51:36.049Z,-2.68
2022-12-16T01:54:11.944Z,-2.77
2022-12-16T01:56:49.383Z,-2.79
2022-12-16T01:59:18.965Z,-2.70
2022-12-16T02:01:46.273Z,-2.82
2022-12-16T02:04:13.350Z,-2.92
2022-12-16T02:06:40.358Z,-2.99
2022-12-16T02:09:11.184Z,-2.88
2022-12-16T02:12:08.052Z,-2.84
2022-12-16T02:14:51.749Z,-2.86
2022-12-16T02:17:24.190Z,-2.85
2022-12-16T02:20:27.653Z,-2.73
2022-12-16T02:23:50.783Z,-3.00
2022-12-16T02:27:05.550Z,-2.88
2022-12-16T02:29:56.445Z,-2.99
2022-12-16T02:32:40.733Z,-2.91
2022-12-16T02:35:15.340Z,-2.86
2022-12-16T02:37:54.628Z,-2.94
2022-12-16T02:40:26.865Z,-3.10
2022-12-16T02:43:07.346Z,-3.12
2022-12-16T02:45:36.785Z,-3.02
2022-12-16T02:48:03.914Z,-3.06
2022-12-16T02:50:39.588Z,-3.07
2022-12-16T02:53:08.231Z,-2.97
2022-12-16T02:56:14.422Z,-2.92
2022-12-16T02:59:15.300Z,-2.95
2022-12-16T03:02:00.444Z,-2.95
2022-12-16T03:04:55.960Z,-3.04
2022-12-16T03:07:26.426Z,-3.10
2022-12-16T03:09:55.085Z,-3.05
2022-12-16T03:12:23.210Z,-3.13
2022-12-16T03:14:53.818Z,-3.18
2022-12-16T03:17:23.954Z,-3.11
2022-12-16T03:20:06.585Z,-3.00
2022-12-16T03:22:37.884Z,-3.13
2022-12-16T03:25:06.714Z,-2.95
2022-12-16T03:27:56.351Z,-3.18
2022-12-16T03:30:34.941Z,-3.08
2022-12-16T03:33:09.570Z,-3.05
2022-12-16T03:35:43.255Z,-3.20
2022-12-16T03:38:12.422Z,-3.31
2022-12-16T03:40:42.299Z,-3.26
2022-12-16T03:43:12.374Z,-3.27
2022-12-16T03:45:42.755Z,-3.24
2022-12-16T03:48:12.802Z,-3.25
2022-12-16T03:50:40.549Z,-3.29
2022-12-16T03:53:08.441Z,-3.32
2022-12-16T03:55:35.620Z,-3.27
2022-12-16T03:58:02.448Z,-3.26
2022-12-16T04:00:29.873Z,-3.26
2022-12-16T04:02:56.829Z,-3.16
2022-12-16T04:05:23.872Z,-3.28
2022-12-16T04:07:51.152Z,-3.35
2022-12-16T04:10:37.987Z,-3.29
2022-12-16T04:13:23.378Z,-3.26
2022-12-16T04:16:09.035Z,-3.17
2022-12-16T04:18:54.547Z,-3.10
2022-12-16T04:21:53.525Z,-3.25
2022-12-16T04:24:26.507Z,-3.16
2022-12-16T04:27:15.293Z,-3.24
2022-12-16T04:30:02.075Z,-3.29
2022-12-16T04:32:52.773Z,-3.38
2022-12-16T04:35:38.590Z,-3.33
2022-12-16T04:38:24.137Z,-3.35
2022-12-16T04:41:09.468Z,-3.42
2022-12-16T04:43:54.744Z,-3.31
2022-12-16T04:46:40.308Z,-3.49
2022-12-16T04:49:25.696Z,-3.39
2022-12-16T04:52:11.252Z,-3.46
2022-12-16T04:54:56.631Z,-3.66
2022-12-16T04:57:42.088Z,-3.51
2022-12-16T05:00:28.303Z,-3.44
2022-12-16T05:03:13.825Z,-3.47
2022-12-16T05:05:59.041Z,-3.43
2022-12-16T05:08:44.440Z,-3.36
2022-12-16T05:11:31.637Z,-3.52
2022-12-16T05:14:16.862Z,-3.60
2022-12-16T05:17:02.182Z,-3.58
2022-12-16T05:19:47.572Z,-3.52
2022-12-16T05:22:33.335Z,-3.62
2022-12-16T05:25:18.775Z,-3.72
2022-12-16T05:28:04.344Z,-3.62
2022-12-16T05:30:49.451Z,-3.77
2022-12-16T05:33:35.146Z,-3.83
2022-12-16T05:36:20.874Z,-3.81
2022-12-16T05:39:06.214Z,-3.71
2022-12-16T05:41:51.610Z,-3.81
2022-12-16T05:44:37.053Z,-3.78
2022-12-16T05:47:22.703Z,-3.77
2022-12-16T05:50:07.873Z,-3.68
2022-12-16T05:53:06.984Z,-3.87
2022-12-16T05:55:52.484Z,-3.92
2022-12-16T05:58:51.518Z,-3.89
2022-12-16T06:01:37.135Z,-4.06
2022-12-16T06:04:22.798Z,-4.13
2022-12-16T06:07:08.336Z,-4.07
2022-12-16T06:09:56.845Z,-4.30
2022-12-16T06:12:42.707Z,-4.25
2022-12-16T06:15:28.865Z,-4.34
2022-12-16T06:18:14.654Z,-4.43
2022-12-16T06:20:59.612Z,-4.49
2022-12-16T06:23:45.164Z,-4.56
2022-12-16T06:26:31.148Z,-4.50
2022-12-16T06:29:16.644Z,-4.53
2022-12-16T06:32:01.992Z,-4.55
2022-12-16T06:34:47.282Z,-4.64
2022-12-16T06:37:32.643Z,-4.54
2022-12-16T06:40:18.553Z,-4.58
2022-12-16T06:43:04.010Z,-4.49
2022-12-16T06:45:49.363Z,-4.38
2022-12-16T06:48:34.526Z,-4.53
2022-12-16T06:51:20.059Z,-4.63
2022-12-16T06:54:05.374Z,-4.51
2022-12-16T06:56:50.856Z,-4.49
2022-12-16T06:59:36.280Z,-4.58
2022-12-16T07:02:21.927Z,-4.59
2022-12-16T07:05:07.240Z,-4.53
2022-12-16T07:07:52.693Z,-4.52
2022-12-16T07:10:38.206Z,-4.55
2022-12-16T07:13:23.621Z,-4.48
2022-12-16T07:16:09.261Z,-4.48
2022-12-16T07:18:54.559Z,-4.46
2022-12-16T07:21:48.090Z,-4.44
2022-12-16T07:24:33.613Z,-4.37
2022-12-16T07:27:18.976Z,-4.38
2022-12-16T07:30:04.365Z,-4.22
2022-12-16T07:32:49.812Z,-4.32
2022-12-16T07:35:35.176Z,-4.22
2022-12-16T07:38:20.729Z,-4.31
2022-12-16T07:41:07.319Z,-4.30
2022-12-16T07:43:52.643Z,-4.48
2022-12-16T07:46:38.112Z,-4.28
2022-12-16T07:49:23.694Z,-4.16
2022-12-16T07:52:09.283Z,-4.22
2022-12-16T07:54:54.772Z,-4.30
2022-12-16T07:57:41.057Z,-4.19
2022-12-16T08:00:27.903Z,-4.18
2022-12-16T08:03:14.257Z,-4.14
2022-12-16T08:05:59.634Z,-4.02
2022-12-16T08:08:45.087Z,-4.05
2022-12-16T08:11:30.400Z,-4.08
2022-12-16T08:14:15.962Z,-3.85
2022-12-16T08:17:01.421Z,-2.82
2022-12-16T08:19:46.870Z,-0.48
2022-12-16T08:22:32.324Z,2.26
2022-12-16T08:25:17.920Z,4.61
2022-12-16T08:28:03.269Z,7.06
2022-12-16T08:30:48.750Z,9.61
2022-12-16T08:33:34.356Z,11.02
2022-12-16T08:36:19.968Z,12.48
